Airfield :
LOGIN :

Register | Disclaimer

   EN    FR    IT 

 










Legend :    VFR   Marginal VFR   IFR   Intensive IFR   Very Intensive IFR
Visi :
Ceiling :
>= 8 km
>= 3000ft
5 to 8 km
1000 to 3000 ft
1500m to 5 km
500 to 1000 ft
800 to 1500m
200 to 500 ft
< 800m
< 200 ft
Symbols :   Thunderstorms  Fog  Heavy snow  Heavy precipitations  Wind > 20 kt
SIGMETs :     Misc.  Thunderstorms  Icing  Turbulence  Mountain Waves  Volcanic Ashes






- Airport Elevation : 137 ft


LIPS - Istrana AFB Treviso

CURRENT METAR :
  • 170255Z 07005KT 4000 BR FEW015CB BKN040 15/13 Q1001 RETS RMK BKN VIS MIN 4000 WIND THR26 03006KT WIND THR08 08005KT GRN

EXPIRED METARs :
  • 170223Z 03005KT 2000 +TSRA BKN004CB 15/14 Q1001 RMK OVC VIS MIN 2000 WIND THR26 17005KT WIND THR08 09004KT YLO
  • 170155Z 10003KT 6000 -TSRA FEW020CB BKN040 15/13 Q1002 RMK OVC VIS MIN 6000 WIND THR26 05002KT WIND THR08 08004KT WHT
  • 170055Z 13002KT 5000 -RA VCTS FEW010CB BKN012 15/13 Q1002 RMK OVC VIS MIN 5000 WIND THR26 WIND THR08 GRN

TAF TAF LIPS
Valid from the 17 at 03:00 until the 17 at 12:00 UTC


170200Z 1703/1712 26005KT 7000 SCT015 BKN030
TEMPO 1703/1706 4000 SHRA FEW010CB BKN020
BECMG 1707/1709 10007KT 9999 SCT040



MET'MAP, your aeronautical weather chart ! - Copyright ORBIFLY December 2007 - Disclaimer

ORBIFLY MET'MAP TEAM :

Programming & Development : Alexandra Zaïnal
Concept & original design : Baudouin d'Aumeries
Assistance for programming : Marc-Olivier Méhu
Technical & hardware support : Manuel Goepfert

Contact : metmap@orbifly.com




SOURCES & CREDITS :

   NOAA